sensor_id;sensor_type;location;lat;lon;timestamp;pressure;altitude;pressure_sealevel;temperature
20289;BMP180;10303;51.960;8.372;2023-06-14T00:00:59;100503.00;;;21.50
20289;BMP180;10303;51.960;8.372;2023-06-14T00:03:25;100508.00;;;21.50
20289;BMP180;10303;51.960;8.372;2023-06-14T00:05:52;100513.00;;;21.40
20289;BMP180;10303;51.960;8.372;2023-06-14T00:08:17;100512.00;;;21.40
20289;BMP180;10303;51.960;8.372;2023-06-14T00:10:45;100520.00;;;21.40
20289;BMP180;10303;51.960;8.372;2023-06-14T00:13:11;100514.00;;;21.30
20289;BMP180;10303;51.960;8.372;2023-06-14T00:15:38;100512.00;;;21.30
20289;BMP180;10303;51.960;8.372;2023-06-14T00:18:04;100516.00;;;21.20
20289;BMP180;10303;51.960;8.372;2023-06-14T00:20:32;100522.00;;;21.20
20289;BMP180;10303;51.960;8.372;2023-06-14T00:23:02;100523.00;;;21.10
20289;BMP180;10303;51.960;8.372;2023-06-14T00:25:28;100529.00;;;21.10
20289;BMP180;10303;51.960;8.372;2023-06-14T00:27:56;100530.00;;;21.10
20289;BMP180;10303;51.960;8.372;2023-06-14T00:30:22;100533.00;;;21.00
20289;BMP180;10303;51.960;8.372;2023-06-14T00:32:48;100543.00;;;21.00
20289;BMP180;10303;51.960;8.372;2023-06-14T00:35:15;100535.00;;;20.90
20289;BMP180;10303;51.960;8.372;2023-06-14T00:37:41;100539.00;;;20.90
20289;BMP180;10303;51.960;8.372;2023-06-14T00:40:08;100539.00;;;20.80
20289;BMP180;10303;51.960;8.372;2023-06-14T00:42:34;100536.00;;;20.80
20289;BMP180;10303;51.960;8.372;2023-06-14T00:45:00;100532.00;;;20.70
20289;BMP180;10303;51.960;8.372;2023-06-14T00:47:26;100535.00;;;20.70
20289;BMP180;10303;51.960;8.372;2023-06-14T00:49:54;100544.00;;;20.70
20289;BMP180;10303;51.960;8.372;2023-06-14T00:52:22;100541.00;;;20.60
20289;BMP180;10303;51.960;8.372;2023-06-14T00:54:50;100539.00;;;20.60
20289;BMP180;10303;51.960;8.372;2023-06-14T00:57:17;100537.00;;;20.50
20289;BMP180;10303;51.960;8.372;2023-06-14T00:59:48;100542.00;;;20.40
20289;BMP180;10303;51.960;8.372;2023-06-14T01:02:16;100543.00;;;20.40
20289;BMP180;10303;51.960;8.372;2023-06-14T01:04:48;100536.00;;;20.30
20289;BMP180;10303;51.960;8.372;2023-06-14T01:07:28;100547.00;;;20.30
20289;BMP180;10303;51.960;8.372;2023-06-14T01:13:29;100549.00;;;20.10
20289;BMP180;10303;51.960;8.372;2023-06-14T01:15:58;100551.00;;;20.10
20289;BMP180;10303;51.960;8.372;2023-06-14T01:18:24;100541.00;;;20.10
20289;BMP180;10303;51.960;8.372;2023-06-14T01:20:52;100548.00;;;20.00
20289;BMP180;10303;51.960;8.372;2023-06-14T01:23:24;100540.00;;;20.00
20289;BMP180;10303;51.960;8.372;2023-06-14T01:25:52;100542.00;;;20.00
20289;BMP180;10303;51.960;8.372;2023-06-14T01:28:21;100548.00;;;19.90
20289;BMP180;10303;51.960;8.372;2023-06-14T01:30:53;100548.00;;;19.80
20289;BMP180;10303;51.960;8.372;2023-06-14T01:33:27;100547.00;;;19.80
20289;BMP180;10303;51.960;8.372;2023-06-14T01:35:56;100547.00;;;19.80
20289;BMP180;10303;51.960;8.372;2023-06-14T01:38:26;100555.00;;;19.70
20289;BMP180;10303;51.960;8.372;2023-06-14T01:40:55;100544.00;;;19.70
20289;BMP180;10303;51.960;8.372;2023-06-14T01:43:25;100542.00;;;19.70
20289;BMP180;10303;51.960;8.372;2023-06-14T01:45:54;100550.00;;;19.60
20289;BMP180;10303;51.960;8.372;2023-06-14T01:48:22;100556.00;;;19.60
20289;BMP180;10303;51.960;8.372;2023-06-14T01:50:49;100552.00;;;19.50
20289;BMP180;10303;51.960;8.372;2023-06-14T01:53:16;100560.00;;;19.50
20289;BMP180;10303;51.960;8.372;2023-06-14T01:55:42;100573.00;;;19.40
20289;BMP180;10303;51.960;8.372;2023-06-14T01:58:12;100564.00;;;19.40
20289;BMP180;10303;51.960;8.372;2023-06-14T02:00:39;100563.00;;;19.30
20289;BMP180;10303;51.960;8.372;2023-06-14T02:03:06;100560.00;;;19.30
20289;BMP180;10303;51.960;8.372;2023-06-14T02:05:31;100558.00;;;19.20
20289;BMP180;10303;51.960;8.372;2023-06-14T02:07:57;100561.00;;;19.20
20289;BMP180;10303;51.960;8.372;2023-06-14T02:10:23;100550.00;;;19.10
20289;BMP180;10303;51.960;8.372;2023-06-14T02:12:49;100559.00;;;19.00
20289;BMP180;10303;51.960;8.372;2023-06-14T02:15:15;100558.00;;;19.00
20289;BMP180;10303;51.960;8.372;2023-06-14T02:17:48;100560.00;;;18.90
20289;BMP180;10303;51.960;8.372;2023-06-14T02:20:16;100562.00;;;18.90
20289;BMP180;10303;51.960;8.372;2023-06-14T02:22:43;100569.00;;;18.80
20289;BMP180;10303;51.960;8.372;2023-06-14T02:25:09;100567.00;;;18.80
20289;BMP180;10303;51.960;8.372;2023-06-14T02:27:35;100558.00;;;18.70
20289;BMP180;10303;51.960;8.372;2023-06-14T02:30:03;100561.00;;;18.70
20289;BMP180;10303;51.960;8.372;2023-06-14T02:32:32;100563.00;;;18.60
20289;BMP180;10303;51.960;8.372;2023-06-14T02:34:59;100557.00;;;18.60
20289;BMP180;10303;51.960;8.372;2023-06-14T02:37:25;100563.00;;;18.60
20289;BMP180;10303;51.960;8.372;2023-06-14T02:39:52;100559.00;;;18.60
20289;BMP180;10303;51.960;8.372;2023-06-14T02:42:18;100559.00;;;18.50
20289;BMP180;10303;51.960;8.372;2023-06-14T02:44:44;100568.00;;;18.50
20289;BMP180;10303;51.960;8.372;2023-06-14T02:47:12;100558.00;;;18.50
20289;BMP180;10303;51.960;8.372;2023-06-14T02:49:38;100551.00;;;18.40
20289;BMP180;10303;51.960;8.372;2023-06-14T02:52:04;100553.00;;;18.40
20289;BMP180;10303;51.960;8.372;2023-06-14T02:54:30;100554.00;;;18.30
20289;BMP180;10303;51.960;8.372;2023-06-14T02:56:58;100556.00;;;18.30
20289;BMP180;10303;51.960;8.372;2023-06-14T02:59:24;100564.00;;;18.30
20289;BMP180;10303;51.960;8.372;2023-06-14T03:01:52;100566.00;;;18.20
20289;BMP180;10303;51.960;8.372;2023-06-14T03:04:18;100567.00;;;18.20
20289;BMP180;10303;51.960;8.372;2023-06-14T03:06:45;100576.00;;;18.20
20289;BMP180;10303;51.960;8.372;2023-06-14T03:09:16;100575.00;;;18.20
20289;BMP180;10303;51.960;8.372;2023-06-14T03:11:42;100580.00;;;18.10
20289;BMP180;10303;51.960;8.372;2023-06-14T03:14:10;100572.00;;;18.10
20289;BMP180;10303;51.960;8.372;2023-06-14T03:16:37;100589.00;;;18.20
20289;BMP180;10303;51.960;8.372;2023-06-14T03:19:04;100587.00;;;18.20
20289;BMP180;10303;51.960;8.372;2023-06-14T03:21:32;100581.00;;;18.20
20289;BMP180;10303;51.960;8.372;2023-06-14T03:24:00;100592.00;;;18.20
20289;BMP180;10303;51.960;8.372;2023-06-14T03:26:28;100583.00;;;18.20
20289;BMP180;10303;51.960;8.372;2023-06-14T03:28:58;100598.00;;;18.20
20289;BMP180;10303;51.960;8.372;2023-06-14T03:31:24;100592.00;;;18.20
20289;BMP180;10303;51.960;8.372;2023-06-14T03:33:50;100583.00;;;18.20
20289;BMP180;10303;51.960;8.372;2023-06-14T03:36:18;100593.00;;;18.20
20289;BMP180;10303;51.960;8.372;2023-06-14T03:38:44;100583.00;;;18.30
20289;BMP180;10303;51.960;8.372;2023-06-14T03:41:11;100592.00;;;18.30
20289;BMP180;10303;51.960;8.372;2023-06-14T03:43:37;100598.00;;;18.30
20289;BMP180;10303;51.960;8.372;2023-06-14T03:46:03;100602.00;;;18.30
20289;BMP180;10303;51.960;8.372;2023-06-14T03:48:32;100606.00;;;18.30
20289;BMP180;10303;51.960;8.372;2023-06-14T03:50:58;100602.00;;;18.30
20289;BMP180;10303;51.960;8.372;2023-06-14T03:53:24;100604.00;;;18.30
20289;BMP180;10303;51.960;8.372;2023-06-14T03:55:51;100607.00;;;18.30
20289;BMP180;10303;51.960;8.372;2023-06-14T03:58:21;100605.00;;;18.30
20289;BMP180;10303;51.960;8.372;2023-06-14T04:00:47;100610.00;;;18.30
20289;BMP180;10303;51.960;8.372;2023-06-14T04:03:13;100605.00;;;18.30
20289;BMP180;10303;51.960;8.372;2023-06-14T04:05:41;100622.00;;;18.30
20289;BMP180;10303;51.960;8.372;2023-06-14T04:08:09;100624.00;;;18.30
20289;BMP180;10303;51.960;8.372;2023-06-14T04:10:36;100625.00;;;18.40
20289;BMP180;10303;51.960;8.372;2023-06-14T04:13:02;100619.00;;;18.30
20289;BMP180;10303;51.960;8.372;2023-06-14T04:15:29;100630.00;;;18.40
20289;BMP180;10303;51.960;8.372;2023-06-14T04:17:57;100634.00;;;18.40
20289;BMP180;10303;51.960;8.372;2023-06-14T04:20:24;100635.00;;;18.40
20289;BMP180;10303;51.960;8.372;2023-06-14T04:22:51;100642.00;;;18.40
20289;BMP180;10303;51.960;8.372;2023-06-14T04:25:19;100648.00;;;18.40
20289;BMP180;10303;51.960;8.372;2023-06-14T04:27:47;100649.00;;;18.40
20289;BMP180;10303;51.960;8.372;2023-06-14T04:30:14;100647.00;;;18.40
20289;BMP180;10303;51.960;8.372;2023-06-14T04:32:46;100650.00;;;18.50
20289;BMP180;10303;51.960;8.372;2023-06-14T04:35:12;100651.00;;;18.50
20289;BMP180;10303;51.960;8.372;2023-06-14T04:37:42;100650.00;;;18.50
20289;BMP180;10303;51.960;8.372;2023-06-14T04:40:10;100661.00;;;18.50
20289;BMP180;10303;51.960;8.372;2023-06-14T04:42:37;100665.00;;;18.60
20289;BMP180;10303;51.960;8.372;2023-06-14T04:45:07;100656.00;;;18.60
20289;BMP180;10303;51.960;8.372;2023-06-14T04:47:33;100655.00;;;18.60
20289;BMP180;10303;51.960;8.372;2023-06-14T04:50:00;100662.00;;;18.70
20289;BMP180;10303;51.960;8.372;2023-06-14T04:52:29;100668.00;;;18.70
20289;BMP180;10303;51.960;8.372;2023-06-14T04:54:56;100669.00;;;18.70
20289;BMP180;10303;51.960;8.372;2023-06-14T04:57:23;100678.00;;;18.70
20289;BMP180;10303;51.960;8.372;2023-06-14T04:59:53;100676.00;;;18.80
20289;BMP180;10303;51.960;8.372;2023-06-14T05:02:26;100673.00;;;18.80
20289;BMP180;10303;51.960;8.372;2023-06-14T05:04:53;100668.00;;;18.90
20289;BMP180;10303;51.960;8.372;2023-06-14T05:07:22;100663.00;;;18.90
20289;BMP180;10303;51.960;8.372;2023-06-14T05:09:50;100665.00;;;18.90
20289;BMP180;10303;51.960;8.372;2023-06-14T05:12:16;100676.00;;;19.00
20289;BMP180;10303;51.960;8.372;2023-06-14T05:14:45;100674.00;;;19.00
20289;BMP180;10303;51.960;8.372;2023-06-14T05:17:11;100671.00;;;19.10
20289;BMP180;10303;51.960;8.372;2023-06-14T05:19:37;100682.00;;;19.10
20289;BMP180;10303;51.960;8.372;2023-06-14T05:22:03;100677.00;;;19.20
20289;BMP180;10303;51.960;8.372;2023-06-14T05:24:29;100680.00;;;19.20
20289;BMP180;10303;51.960;8.372;2023-06-14T05:26:58;100675.00;;;19.30
20289;BMP180;10303;51.960;8.372;2023-06-14T05:29:24;100679.00;;;19.30
20289;BMP180;10303;51.960;8.372;2023-06-14T05:31:50;100687.00;;;19.40
20289;BMP180;10303;51.960;8.372;2023-06-14T05:34:16;100695.00;;;19.40
20289;BMP180;10303;51.960;8.372;2023-06-14T05:36:42;100693.00;;;19.50
20289;BMP180;10303;51.960;8.372;2023-06-14T05:39:08;100694.00;;;19.50
20289;BMP180;10303;51.960;8.372;2023-06-14T05:41:35;100699.00;;;19.60
20289;BMP180;10303;51.960;8.372;2023-06-14T05:44:01;100687.00;;;19.60
20289;BMP180;10303;51.960;8.372;2023-06-14T05:46:27;100693.00;;;19.60
20289;BMP180;10303;51.960;8.372;2023-06-14T05:48:55;100701.00;;;19.70
20289;BMP180;10303;51.960;8.372;2023-06-14T05:51:22;100702.00;;;19.70
20289;BMP180;10303;51.960;8.372;2023-06-14T05:53:50;100705.00;;;19.80
20289;BMP180;10303;51.960;8.372;2023-06-14T05:56:18;100705.00;;;19.80
20289;BMP180;10303;51.960;8.372;2023-06-14T05:58:45;100711.00;;;19.90
20289;BMP180;10303;51.960;8.372;2023-06-14T06:01:11;100713.00;;;20.00
20289;BMP180;10303;51.960;8.372;2023-06-14T06:03:37;100718.00;;;20.00
20289;BMP180;10303;51.960;8.372;2023-06-14T06:06:03;100714.00;;;20.00
20289;BMP180;10303;51.960;8.372;2023-06-14T06:08:29;100717.00;;;20.10
20289;BMP180;10303;51.960;8.372;2023-06-14T06:10:56;100719.00;;;20.20
20289;BMP180;10303;51.960;8.372;2023-06-14T06:13:22;100721.00;;;20.20
20289;BMP180;10303;51.960;8.372;2023-06-14T06:15:48;100718.00;;;20.30
20289;BMP180;10303;51.960;8.372;2023-06-14T06:18:14;100711.00;;;20.30
20289;BMP180;10303;51.960;8.372;2023-06-14T06:20:40;100717.00;;;20.40
20289;BMP180;10303;51.960;8.372;2023-06-14T06:23:06;100723.00;;;20.40
20289;BMP180;10303;51.960;8.372;2023-06-14T06:25:33;100714.00;;;20.40
20289;BMP180;10303;51.960;8.372;2023-06-14T06:27:59;100717.00;;;20.50
20289;BMP180;10303;51.960;8.372;2023-06-14T06:30:25;100718.00;;;20.60
20289;BMP180;10303;51.960;8.372;2023-06-14T06:32:52;100728.00;;;20.60
20289;BMP180;10303;51.960;8.372;2023-06-14T06:35:18;100722.00;;;20.70
20289;BMP180;10303;51.960;8.372;2023-06-14T06:37:44;100737.00;;;20.70
20289;BMP180;10303;51.960;8.372;2023-06-14T06:40:10;100734.00;;;20.70
20289;BMP180;10303;51.960;8.372;2023-06-14T06:42:36;100727.00;;;20.80
20289;BMP180;10303;51.960;8.372;2023-06-14T06:45:05;100728.00;;;20.80
20289;BMP180;10303;51.960;8.372;2023-06-14T06:47:31;100737.00;;;20.80
20289;BMP180;10303;51.960;8.372;2023-06-14T06:49:57;100726.00;;;20.90
20289;BMP180;10303;51.960;8.372;2023-06-14T06:52:23;100741.00;;;20.90
20289;BMP180;10303;51.960;8.372;2023-06-14T06:54:49;100741.00;;;21.00
20289;BMP180;10303;51.960;8.372;2023-06-14T06:57:16;100736.00;;;21.00
20289;BMP180;10303;51.960;8.372;2023-06-14T06:59:42;100742.00;;;21.10
20289;BMP180;10303;51.960;8.372;2023-06-14T07:02:08;100745.00;;;21.10
20289;BMP180;10303;51.960;8.372;2023-06-14T07:04:33;100743.00;;;21.20
20289;BMP180;10303;51.960;8.372;2023-06-14T07:06:59;100735.00;;;21.20
20289;BMP180;10303;51.960;8.372;2023-06-14T07:09:26;100739.00;;;21.30
20289;BMP180;10303;51.960;8.372;2023-06-14T07:11:52;100735.00;;;21.30
20289;BMP180;10303;51.960;8.372;2023-06-14T07:14:18;100746.00;;;21.30
20289;BMP180;10303;51.960;8.372;2023-06-14T07:16:43;100749.00;;;21.40
20289;BMP180;10303;51.960;8.372;2023-06-14T07:19:10;100750.00;;;21.40
20289;BMP180;10303;51.960;8.372;2023-06-14T07:21:36;100749.00;;;21.50
20289;BMP180;10303;51.960;8.372;2023-06-14T07:24:08;100745.00;;;21.60
20289;BMP180;10303;51.960;8.372;2023-06-14T07:26:34;100752.00;;;21.70
20289;BMP180;10303;51.960;8.372;2023-06-14T07:29:01;100756.00;;;21.70
20289;BMP180;10303;51.960;8.372;2023-06-14T07:31:27;100755.00;;;21.80
20289;BMP180;10303;51.960;8.372;2023-06-14T07:33:53;100761.00;;;21.90
20289;BMP180;10303;51.960;8.372;2023-06-14T07:36:19;100757.00;;;21.90
20289;BMP180;10303;51.960;8.372;2023-06-14T07:38:46;100762.00;;;22.00
20289;BMP180;10303;51.960;8.372;2023-06-14T07:41:12;100761.00;;;22.10
20289;BMP180;10303;51.960;8.372;2023-06-14T07:43:38;100766.00;;;22.10
20289;BMP180;10303;51.960;8.372;2023-06-14T07:46:04;100775.00;;;22.20
20289;BMP180;10303;51.960;8.372;2023-06-14T07:48:30;100777.00;;;22.30
20289;BMP180;10303;51.960;8.372;2023-06-14T07:50:56;100774.00;;;22.40
20289;BMP180;10303;51.960;8.372;2023-06-14T07:53:22;100770.00;;;22.50
20289;BMP180;10303;51.960;8.372;2023-06-14T07:55:48;100765.00;;;22.60
20289;BMP180;10303;51.960;8.372;2023-06-14T07:58:15;100762.00;;;22.70
20289;BMP180;10303;51.960;8.372;2023-06-14T08:00:41;100771.00;;;22.80
20289;BMP180;10303;51.960;8.372;2023-06-14T08:03:07;100768.00;;;23.00
20289;BMP180;10303;51.960;8.372;2023-06-14T08:05:36;100763.00;;;23.10
20289;BMP180;10303;51.960;8.372;2023-06-14T08:08:02;100763.00;;;23.20
20289;BMP180;10303;51.960;8.372;2023-06-14T08:10:29;100763.00;;;23.30
20289;BMP180;10303;51.960;8.372;2023-06-14T08:12:54;100762.00;;;23.40
20289;BMP180;10303;51.960;8.372;2023-06-14T08:15:20;100769.00;;;23.50
20289;BMP180;10303;51.960;8.372;2023-06-14T08:17:46;100761.00;;;23.70
20289;BMP180;10303;51.960;8.372;2023-06-14T08:20:13;100766.00;;;23.80
20289;BMP180;10303;51.960;8.372;2023-06-14T08:22:43;100760.00;;;24.00
20289;BMP180;10303;51.960;8.372;2023-06-14T08:25:09;100766.00;;;24.10
20289;BMP180;10303;51.960;8.372;2023-06-14T08:27:36;100765.00;;;24.30
20289;BMP180;10303;51.960;8.372;2023-06-14T08:30:04;100771.00;;;24.40
20289;BMP180;10303;51.960;8.372;2023-06-14T08:32:30;100768.00;;;24.60
20289;BMP180;10303;51.960;8.372;2023-06-14T08:34:56;100773.00;;;24.80
20289;BMP180;10303;51.960;8.372;2023-06-14T08:37:21;100764.00;;;24.90
20289;BMP180;10303;51.960;8.372;2023-06-14T08:39:47;100774.00;;;25.00
20289;BMP180;10303;51.960;8.372;2023-06-14T08:42:15;100770.00;;;25.10
20289;BMP180;10303;51.960;8.372;2023-06-14T08:44:41;100769.00;;;25.30
20289;BMP180;10303;51.960;8.372;2023-06-14T08:47:09;100791.00;;;25.40
20289;BMP180;10303;51.960;8.372;2023-06-14T08:49:40;100785.00;;;25.60
20289;BMP180;10303;51.960;8.372;2023-06-14T08:52:10;100786.00;;;25.80
20289;BMP180;10303;51.960;8.372;2023-06-14T08:54:38;100784.00;;;26.00
20289;BMP180;10303;51.960;8.372;2023-06-14T08:57:11;100778.00;;;26.10
20289;BMP180;10303;51.960;8.372;2023-06-14T08:59:47;100788.00;;;26.20
20289;BMP180;10303;51.960;8.372;2023-06-14T09:02:15;100793.00;;;26.50
20289;BMP180;10303;51.960;8.372;2023-06-14T09:04:45;100780.00;;;26.60
20289;BMP180;10303;51.960;8.372;2023-06-14T09:07:12;100797.00;;;26.80
20289;BMP180;10303;51.960;8.372;2023-06-14T09:09:39;100780.00;;;26.90
20289;BMP180;10303;51.960;8.372;2023-06-14T09:12:09;100797.00;;;27.00
20289;BMP180;10303;51.960;8.372;2023-06-14T09:14:37;100788.00;;;27.20
20289;BMP180;10303;51.960;8.372;2023-06-14T09:17:06;100782.00;;;27.30
20289;BMP180;10303;51.960;8.372;2023-06-14T09:19:34;100797.00;;;27.40
20289;BMP180;10303;51.960;8.372;2023-06-14T09:22:03;100796.00;;;27.50
20289;BMP180;10303;51.960;8.372;2023-06-14T09:24:29;100810.00;;;27.60
20289;BMP180;10303;51.960;8.372;2023-06-14T09:26:55;100803.00;;;27.70
20289;BMP180;10303;51.960;8.372;2023-06-14T09:29:23;100804.00;;;27.90
20289;BMP180;10303;51.960;8.372;2023-06-14T09:31:49;100796.00;;;28.00
20289;BMP180;10303;51.960;8.372;2023-06-14T09:34:16;100801.00;;;28.10
20289;BMP180;10303;51.960;8.372;2023-06-14T09:36:45;100802.00;;;28.30
20289;BMP180;10303;51.960;8.372;2023-06-14T09:39:17;100805.00;;;28.40
20289;BMP180;10303;51.960;8.372;2023-06-14T09:41:43;100800.00;;;28.50
20289;BMP180;10303;51.960;8.372;2023-06-14T09:44:10;100789.00;;;28.50
20289;BMP180;10303;51.960;8.372;2023-06-14T09:46:39;100805.00;;;28.60
20289;BMP180;10303;51.960;8.372;2023-06-14T09:49:06;100803.00;;;28.60
20289;BMP180;10303;51.960;8.372;2023-06-14T09:51:35;100805.00;;;28.70
20289;BMP180;10303;51.960;8.372;2023-06-14T09:54:03;100805.00;;;28.80
20289;BMP180;10303;51.960;8.372;2023-06-14T09:56:40;100798.00;;;28.80
20289;BMP180;10303;51.960;8.372;2023-06-14T09:59:09;100804.00;;;29.00
20289;BMP180;10303;51.960;8.372;2023-06-14T10:01:44;100801.00;;;29.10
20289;BMP180;10303;51.960;8.372;2023-06-14T10:04:13;100794.00;;;29.30
20289;BMP180;10303;51.960;8.372;2023-06-14T10:06:45;100807.00;;;29.50
20289;BMP180;10303;51.960;8.372;2023-06-14T10:09:12;100804.00;;;29.60
20289;BMP180;10303;51.960;8.372;2023-06-14T10:11:40;100805.00;;;29.70
20289;BMP180;10303;51.960;8.372;2023-06-14T10:14:12;100794.00;;;29.90
20289;BMP180;10303;51.960;8.372;2023-06-14T10:17:08;100792.00;;;30.10
20289;BMP180;10303;51.960;8.372;2023-06-14T10:19:46;100796.00;;;30.30
20289;BMP180;10303;51.960;8.372;2023-06-14T10:22:44;100796.00;;;30.50
20289;BMP180;10303;51.960;8.372;2023-06-14T10:25:31;100802.00;;;30.60
20289;BMP180;10303;51.960;8.372;2023-06-14T10:28:20;100806.00;;;30.90
20289;BMP180;10303;51.960;8.372;2023-06-14T10:31:11;100790.00;;;31.10
20289;BMP180;10303;51.960;8.372;2023-06-14T10:33:56;100797.00;;;31.20
20289;BMP180;10303;51.960;8.372;2023-06-14T10:39:17;100794.00;;;31.40
20289;BMP180;10303;51.960;8.372;2023-06-14T10:41:53;100799.00;;;31.40
20289;BMP180;10303;51.960;8.372;2023-06-14T10:46:52;100808.00;;;31.70
20289;BMP180;10303;51.960;8.372;2023-06-14T10:50:08;100810.00;;;31.80
20289;BMP180;10303;51.960;8.372;2023-06-14T10:52:42;100801.00;;;32.00
20289;BMP180;10303;51.960;8.372;2023-06-14T10:55:16;100809.00;;;32.10
20289;BMP180;10303;51.960;8.372;2023-06-14T10:57:51;100800.00;;;32.30
20289;BMP180;10303;51.960;8.372;2023-06-14T11:00:21;100790.00;;;32.40
20289;BMP180;10303;51.960;8.372;2023-06-14T11:05:51;100782.00;;;32.50
20289;BMP180;10303;51.960;8.372;2023-06-14T11:11:09;100795.00;;;32.40
20289;BMP180;10303;51.960;8.372;2023-06-14T11:13:45;100793.00;;;32.30
20289;BMP180;10303;51.960;8.372;2023-06-14T11:16:14;100791.00;;;32.30
20289;BMP180;10303;51.960;8.372;2023-06-14T11:18:41;100784.00;;;32.30
20289;BMP180;10303;51.960;8.372;2023-06-14T11:21:07;100782.00;;;32.30
20289;BMP180;10303;51.960;8.372;2023-06-14T11:23:35;100787.00;;;32.40
20289;BMP180;10303;51.960;8.372;2023-06-14T11:26:01;100787.00;;;32.50
20289;BMP180;10303;51.960;8.372;2023-06-14T11:28:41;100784.00;;;32.60
20289;BMP180;10303;51.960;8.372;2023-06-14T11:31:09;100785.00;;;32.90
20289;BMP180;10303;51.960;8.372;2023-06-14T11:33:35;100774.00;;;33.00
20289;BMP180;10303;51.960;8.372;2023-06-14T11:36:06;100782.00;;;33.20
20289;BMP180;10303;51.960;8.372;2023-06-14T11:38:37;100780.00;;;33.30
20289;BMP180;10303;51.960;8.372;2023-06-14T11:41:03;100784.00;;;33.30
20289;BMP180;10303;51.960;8.372;2023-06-14T11:43:29;100784.00;;;33.40
20289;BMP180;10303;51.960;8.372;2023-06-14T11:45:57;100783.00;;;33.50
20289;BMP180;10303;51.960;8.372;2023-06-14T11:48:23;100791.00;;;33.50
20289;BMP180;10303;51.960;8.372;2023-06-14T11:50:50;100776.00;;;33.60
20289;BMP180;10303;51.960;8.372;2023-06-14T11:53:17;100769.00;;;33.60
20289;BMP180;10303;51.960;8.372;2023-06-14T11:55:43;100769.00;;;33.60
20289;BMP180;10303;51.960;8.372;2023-06-14T11:58:12;100771.00;;;33.60
20289;BMP180;10303;51.960;8.372;2023-06-14T12:00:38;100767.00;;;33.50
20289;BMP180;10303;51.960;8.372;2023-06-14T12:03:04;100759.00;;;33.60
20289;BMP180;10303;51.960;8.372;2023-06-14T12:05:30;100766.00;;;33.70
20289;BMP180;10303;51.960;8.372;2023-06-14T12:08:01;100774.00;;;33.70
20289;BMP180;10303;51.960;8.372;2023-06-14T12:10:29;100775.00;;;33.80
20289;BMP180;10303;51.960;8.372;2023-06-14T12:12:59;100777.00;;;33.90
20289;BMP180;10303;51.960;8.372;2023-06-14T12:15:28;100776.00;;;34.00
20289;BMP180;10303;51.960;8.372;2023-06-14T12:18:00;100772.00;;;34.10
20289;BMP180;10303;51.960;8.372;2023-06-14T12:20:30;100771.00;;;34.00
20289;BMP180;10303;51.960;8.372;2023-06-14T12:22:59;100772.00;;;33.90
20289;BMP180;10303;51.960;8.372;2023-06-14T12:25:28;100772.00;;;33.80
20289;BMP180;10303;51.960;8.372;2023-06-14T12:28:15;100768.00;;;33.60
20289;BMP180;10303;51.960;8.372;2023-06-14T12:30:40;100765.00;;;33.40
20289;BMP180;10303;51.960;8.372;2023-06-14T12:33:06;100758.00;;;33.20
20289;BMP180;10303;51.960;8.372;2023-06-14T12:35:33;100772.00;;;33.10
20289;BMP180;10303;51.960;8.372;2023-06-14T12:37:59;100772.00;;;33.20
20289;BMP180;10303;51.960;8.372;2023-06-14T12:40:25;100765.00;;;33.20
20289;BMP180;10303;51.960;8.372;2023-06-14T12:42:52;100770.00;;;33.30
20289;BMP180;10303;51.960;8.372;2023-06-14T12:45:18;100766.00;;;33.30
20289;BMP180;10303;51.960;8.372;2023-06-14T12:47:43;100770.00;;;33.20
20289;BMP180;10303;51.960;8.372;2023-06-14T12:50:09;100774.00;;;33.20
20289;BMP180;10303;51.960;8.372;2023-06-14T12:52:36;100774.00;;;33.20
20289;BMP180;10303;51.960;8.372;2023-06-14T12:55:05;100768.00;;;33.20
20289;BMP180;10303;51.960;8.372;2023-06-14T12:57:32;100769.00;;;33.30
20289;BMP180;10303;51.960;8.372;2023-06-14T13:00:00;100766.00;;;33.30
20289;BMP180;10303;51.960;8.372;2023-06-14T13:02:26;100765.00;;;33.40
20289;BMP180;10303;51.960;8.372;2023-06-14T13:04:52;100763.00;;;33.40
20289;BMP180;10303;51.960;8.372;2023-06-14T13:07:18;100775.00;;;33.40
20289;BMP180;10303;51.960;8.372;2023-06-14T13:09:44;100770.00;;;33.40
20289;BMP180;10303;51.960;8.372;2023-06-14T13:12:11;100765.00;;;33.30
20289;BMP180;10303;51.960;8.372;2023-06-14T13:14:39;100763.00;;;33.20
20289;BMP180;10303;51.960;8.372;2023-06-14T13:17:08;100760.00;;;33.20
20289;BMP180;10303;51.960;8.372;2023-06-14T13:19:34;100759.00;;;33.10
20289;BMP180;10303;51.960;8.372;2023-06-14T13:22:00;100766.00;;;33.00
20289;BMP180;10303;51.960;8.372;2023-06-14T13:24:26;100759.00;;;32.80
20289;BMP180;10303;51.960;8.372;2023-06-14T13:26:52;100763.00;;;32.80
20289;BMP180;10303;51.960;8.372;2023-06-14T13:29:18;100764.00;;;32.60
20289;BMP180;10303;51.960;8.372;2023-06-14T13:31:44;100758.00;;;32.50
20289;BMP180;10303;51.960;8.372;2023-06-14T13:34:10;100764.00;;;32.40
20289;BMP180;10303;51.960;8.372;2023-06-14T13:36:36;100767.00;;;32.40
20289;BMP180;10303;51.960;8.372;2023-06-14T13:39:02;100771.00;;;32.30
20289;BMP180;10303;51.960;8.372;2023-06-14T13:41:28;100765.00;;;32.30
20289;BMP180;10303;51.960;8.372;2023-06-14T13:44:01;100761.00;;;32.20
20289;BMP180;10303;51.960;8.372;2023-06-14T13:46:29;100761.00;;;32.20
20289;BMP180;10303;51.960;8.372;2023-06-14T13:48:55;100754.00;;;32.20
20289;BMP180;10303;51.960;8.372;2023-06-14T13:51:21;100759.00;;;32.20
20289;BMP180;10303;51.960;8.372;2023-06-14T13:53:50;100764.00;;;32.10
20289;BMP180;10303;51.960;8.372;2023-06-14T13:56:18;100757.00;;;32.10
20289;BMP180;10303;51.960;8.372;2023-06-14T13:58:44;100755.00;;;32.00
20289;BMP180;10303;51.960;8.372;2023-06-14T14:01:11;100758.00;;;32.00
20289;BMP180;10303;51.960;8.372;2023-06-14T14:03:37;100757.00;;;32.00
20289;BMP180;10303;51.960;8.372;2023-06-14T14:06:04;100754.00;;;32.00
20289;BMP180;10303;51.960;8.372;2023-06-14T14:08:31;100748.00;;;32.00
20289;BMP180;10303;51.960;8.372;2023-06-14T14:10:58;100744.00;;;32.00
20289;BMP180;10303;51.960;8.372;2023-06-14T14:13:24;100749.00;;;32.00
20289;BMP180;10303;51.960;8.372;2023-06-14T14:15:50;100743.00;;;32.00